createdAt,value
2022-12-14T00:00:40.598Z,18.00
2022-12-14T00:01:40.499Z,17.60
2022-12-14T00:02:40.629Z,17.70
2022-12-14T00:03:40.537Z,17.70
2022-12-14T00:04:40.489Z,18.00
2022-12-14T00:05:40.466Z,18.40
2022-12-14T00:06:40.483Z,17.60
2022-12-14T00:07:40.431Z,17.80
2022-12-14T00:08:42.014Z,18.50
2022-12-14T00:09:40.446Z,18.90
2022-12-14T00:10:40.419Z,18.90
2022-12-14T00:11:40.403Z,18.10
2022-12-14T00:12:40.437Z,17.40
2022-12-14T00:13:40.383Z,18.00
2022-12-14T00:14:40.363Z,17.80
2022-12-14T00:15:40.390Z,18.00
2022-12-14T00:16:40.352Z,17.40
2022-12-14T00:17:40.357Z,17.50
2022-12-14T00:18:40.312Z,18.00
2022-12-14T00:19:40.366Z,17.90
2022-12-14T00:20:40.302Z,17.70
2022-12-14T00:21:40.282Z,17.60
2022-12-14T00:22:40.295Z,18.10
2022-12-14T00:23:40.257Z,17.40
2022-12-14T00:24:40.267Z,17.20
2022-12-14T00:25:40.299Z,18.00
2022-12-14T00:26:40.228Z,18.80
2022-12-14T00:27:40.220Z,18.80
2022-12-14T00:28:40.224Z,17.90
2022-12-14T00:29:40.192Z,18.30
2022-12-14T00:30:40.183Z,17.90
2022-12-14T00:31:40.277Z,19.00
2022-12-14T00:32:40.178Z,17.50
2022-12-14T00:33:40.168Z,18.00
2022-12-14T00:34:40.155Z,17.80
2022-12-14T00:35:40.128Z,17.70
2022-12-14T00:36:40.118Z,17.80
2022-12-14T00:37:40.174Z,17.80
2022-12-14T00:38:40.125Z,18.20
2022-12-14T00:39:40.116Z,17.30
2022-12-14T00:40:40.094Z,18.10
2022-12-14T00:41:40.063Z,18.10
2022-12-14T00:42:40.069Z,18.60
2022-12-14T00:43:40.066Z,17.60
2022-12-14T00:44:40.032Z,18.50
2022-12-14T00:45:40.036Z,18.20
2022-12-14T00:46:40.106Z,18.10
2022-12-14T00:47:40.979Z,18.30
2022-12-14T00:48:40.005Z,18.60
2022-12-14T00:49:40.014Z,18.00
2022-12-14T00:50:39.974Z,17.30
2022-12-14T00:51:39.975Z,17.70
2022-12-14T00:52:39.963Z,18.60
2022-12-14T00:53:39.948Z,17.60
2022-12-14T00:54:39.938Z,17.30
2022-12-14T00:55:39.949Z,18.30
2022-12-14T00:56:39.910Z,17.40
2022-12-14T00:57:39.897Z,18.40
2022-12-14T00:58:39.903Z,17.40
2022-12-14T00:59:39.868Z,17.20
2022-12-14T01:00:39.858Z,17.20
2022-12-14T01:01:40.012Z,18.20
2022-12-14T01:02:39.864Z,17.50
2022-12-14T01:03:39.949Z,17.90
2022-12-14T01:04:39.815Z,17.40
2022-12-14T01:05:39.802Z,16.80
2022-12-14T01:06:39.812Z,16.80
2022-12-14T01:07:39.813Z,17.80
2022-12-14T01:08:39.777Z,18.00
2022-12-14T01:09:39.792Z,17.40
2022-12-14T01:10:39.749Z,17.20
2022-12-14T01:11:39.759Z,17.60
2022-12-14T01:12:39.728Z,18.20
2022-12-14T01:13:39.762Z,17.40
2022-12-14T01:14:39.725Z,17.80
2022-12-14T01:15:39.746Z,17.00
2022-12-14T01:16:39.729Z,17.40
2022-12-14T01:17:39.672Z,17.60
2022-12-14T01:18:39.663Z,17.30
2022-12-14T01:19:39.677Z,17.50
2022-12-14T01:20:39.665Z,17.40
2022-12-14T01:21:39.672Z,17.80
2022-12-14T01:22:39.618Z,18.00
2022-12-14T01:23:39.606Z,17.40
2022-12-14T01:24:39.605Z,17.30
2022-12-14T01:25:39.627Z,16.60
2022-12-14T01:26:39.638Z,17.20
2022-12-14T01:27:39.563Z,16.80
2022-12-14T01:28:39.554Z,18.10
2022-12-14T01:29:39.542Z,17.60
2022-12-14T01:30:39.539Z,17.90
2022-12-14T01:31:39.634Z,17.30
2022-12-14T01:32:39.518Z,17.80
2022-12-14T01:33:39.498Z,17.20
2022-12-14T01:34:39.538Z,17.70
2022-12-14T01:35:39.493Z,17.00
2022-12-14T01:36:39.483Z,17.90
2022-12-14T01:37:39.479Z,17.00
2022-12-14T01:38:39.512Z,17.40
2022-12-14T01:39:39.432Z,17.00
2022-12-14T01:40:39.443Z,17.00
2022-12-14T01:41:39.413Z,17.20
2022-12-14T01:42:39.427Z,17.60
2022-12-14T01:43:39.425Z,17.60
2022-12-14T01:44:39.406Z,18.00
2022-12-14T01:45:39.367Z,17.70
2022-12-14T01:46:39.384Z,17.60
2022-12-14T01:47:39.350Z,17.60
2022-12-14T01:48:39.338Z,17.00
2022-12-14T01:49:39.391Z,17.20
2022-12-14T01:50:39.333Z,17.70
2022-12-14T01:51:39.364Z,17.10
2022-12-14T01:52:39.401Z,17.60
2022-12-14T01:53:39.285Z,18.10
2022-12-14T01:54:39.271Z,17.70
2022-12-14T01:55:39.307Z,17.60
2022-12-14T01:56:39.250Z,17.10
2022-12-14T01:57:39.280Z,17.70
2022-12-14T01:58:39.229Z,17.70
2022-12-14T01:59:39.224Z,16.90
2022-12-14T02:00:39.209Z,17.40
2022-12-14T02:01:39.330Z,17.30
2022-12-14T02:02:39.311Z,17.70
2022-12-14T02:03:39.283Z,17.90
2022-12-14T02:04:39.163Z,17.30
2022-12-14T02:05:39.163Z,18.50
2022-12-14T02:06:39.150Z,17.30
2022-12-14T02:07:39.177Z,18.10
2022-12-14T02:08:39.149Z,17.60
2022-12-14T02:09:39.109Z,17.80
2022-12-14T02:10:39.123Z,18.00
2022-12-14T02:11:39.100Z,17.50
2022-12-14T02:12:39.086Z,17.40
2022-12-14T02:13:39.113Z,18.00
2022-12-14T02:14:39.053Z,17.30
2022-12-14T02:15:39.069Z,18.40
2022-12-14T02:16:39.090Z,17.10
2022-12-14T02:17:39.020Z,17.50
2022-12-14T02:18:39.023Z,18.00
2022-12-14T02:19:39.036Z,17.70
2022-12-14T02:20:38.989Z,17.40
2022-12-14T02:21:38.993Z,17.20
2022-12-14T02:22:38.972Z,16.80
2022-12-14T02:23:39.000Z,17.20
2022-12-14T02:24:38.975Z,17.50
2022-12-14T02:25:38.972Z,18.00
2022-12-14T02:26:38.922Z,18.10
2022-12-14T02:27:38.933Z,18.60
2022-12-14T02:28:38.911Z,16.80
2022-12-14T02:29:38.894Z,17.50
2022-12-14T02:30:38.890Z,17.30
2022-12-14T02:31:38.995Z,17.60
2022-12-14T02:32:38.870Z,17.10
2022-12-14T02:33:38.866Z,16.50
2022-12-14T02:34:38.846Z,17.80
2022-12-14T02:35:38.858Z,17.90
2022-12-14T02:36:38.839Z,17.10
2022-12-14T02:37:38.836Z,17.60
2022-12-14T02:38:38.801Z,17.40
2022-12-14T02:39:38.829Z,17.80
2022-12-14T02:40:38.784Z,17.80
2022-12-14T02:41:38.777Z,16.90
2022-12-14T02:42:38.777Z,17.70
2022-12-14T02:43:38.783Z,16.90
2022-12-14T02:44:38.726Z,17.30
2022-12-14T02:45:38.716Z,17.00
2022-12-14T02:46:38.740Z,17.30
2022-12-14T02:47:38.710Z,17.30
2022-12-14T02:48:38.704Z,16.80
2022-12-14T02:49:38.739Z,17.70
2022-12-14T02:50:38.661Z,16.60
2022-12-14T02:51:38.656Z,17.60
2022-12-14T02:52:38.639Z,16.80
2022-12-14T02:53:38.645Z,17.80
2022-12-14T02:54:38.651Z,16.90
2022-12-14T02:55:38.675Z,17.00
2022-12-14T02:56:38.597Z,16.80
2022-12-14T02:57:38.596Z,17.20
2022-12-14T02:58:38.600Z,17.10
2022-12-14T02:59:38.607Z,17.40
2022-12-14T03:00:38.604Z,16.90
2022-12-14T03:01:38.870Z,17.40
2022-12-14T03:02:38.638Z,17.10
2022-12-14T03:03:38.552Z,17.90
2022-12-14T03:04:38.515Z,17.70
2022-12-14T03:05:38.511Z,17.20
2022-12-14T03:06:38.488Z,17.50
2022-12-14T03:07:38.502Z,17.40
2022-12-14T03:08:38.465Z,17.90
2022-12-14T03:09:38.480Z,17.40
2022-12-14T03:10:38.482Z,16.80
2022-12-14T03:11:38.476Z,17.90
2022-12-14T03:12:38.456Z,17.80
2022-12-14T03:13:38.430Z,17.20
2022-12-14T03:14:38.400Z,17.60
2022-12-14T03:15:38.397Z,17.20
2022-12-14T03:16:38.425Z,16.90
2022-12-14T03:17:38.387Z,17.60
2022-12-14T03:18:38.370Z,17.60
2022-12-14T03:19:38.406Z,17.60
2022-12-14T03:20:38.342Z,17.20
2022-12-14T03:21:38.357Z,16.80
2022-12-14T03:22:38.329Z,17.50
2022-12-14T03:23:38.324Z,17.90
2022-12-14T03:24:38.291Z,17.40
2022-12-14T03:25:38.304Z,16.90
2022-12-14T03:26:41.704Z,17.50
2022-12-14T03:27:39.276Z,17.50
2022-12-14T03:28:38.263Z,17.20
2022-12-14T03:29:38.239Z,18.00
2022-12-14T03:30:59.429Z,17.40
2022-12-14T03:31:39.286Z,17.60
2022-12-14T03:32:38.219Z,17.20
2022-12-14T03:33:38.200Z,16.80
2022-12-14T03:34:38.205Z,17.00
2022-12-14T03:35:38.202Z,16.70
2022-12-14T03:36:38.167Z,17.00
2022-12-14T03:37:38.153Z,17.20
2022-12-14T03:38:38.165Z,17.70
2022-12-14T03:39:38.139Z,17.90
2022-12-14T03:40:38.145Z,17.60
2022-12-14T03:41:38.108Z,17.30
2022-12-14T03:42:38.097Z,16.90
2022-12-14T03:43:38.111Z,17.00
2022-12-14T03:44:48.789Z,17.30
2022-12-14T03:45:39.184Z,17.40
2022-12-14T03:46:38.071Z,18.80
2022-12-14T03:47:38.048Z,17.80
2022-12-14T03:48:38.031Z,17.70
2022-12-14T03:49:38.025Z,17.50
2022-12-14T03:50:38.036Z,17.60
2022-12-14T03:51:38.016Z,17.50
2022-12-14T03:52:38.022Z,17.70
2022-12-14T03:53:37.982Z,17.80
2022-12-14T03:54:37.967Z,17.90
2022-12-14T03:55:37.988Z,17.30
2022-12-14T03:56:37.970Z,18.00
2022-12-14T03:57:37.952Z,18.10
2022-12-14T03:58:37.923Z,18.10
2022-12-14T03:59:37.948Z,18.00
2022-12-14T04:00:37.966Z,18.00
2022-12-14T04:01:38.045Z,16.90
2022-12-14T04:02:40.989Z,16.80
2022-12-14T04:03:37.880Z,18.30
2022-12-14T04:04:37.857Z,18.00
2022-12-14T04:05:37.848Z,17.40
2022-12-14T04:06:37.835Z,17.20
2022-12-14T04:07:37.910Z,17.20
2022-12-14T04:08:37.821Z,17.90
2022-12-14T04:09:37.864Z,16.70
2022-12-14T04:10:37.792Z,17.40
2022-12-14T04:11:37.782Z,16.80
2022-12-14T04:12:37.774Z,17.10
2022-12-14T04:13:37.762Z,17.60
2022-12-14T04:14:37.788Z,17.40
2022-12-14T04:15:37.796Z,17.80
2022-12-14T04:16:37.807Z,17.20
2022-12-14T04:17:37.721Z,17.10
2022-12-14T04:18:37.723Z,17.80
2022-12-14T04:19:37.697Z,19.10
2022-12-14T04:20:37.700Z,17.30
2022-12-14T04:21:37.708Z,17.80
2022-12-14T04:22:37.667Z,17.90
2022-12-14T04:23:37.680Z,18.30
2022-12-14T04:24:37.653Z,18.00
2022-12-14T04:25:37.631Z,17.90
2022-12-14T04:26:37.636Z,17.20
2022-12-14T04:27:37.664Z,17.60
2022-12-14T04:28:37.599Z,18.30
2022-12-14T04:29:40.416Z,17.60
2022-12-14T04:30:38.585Z,17.40
2022-12-14T04:31:37.631Z,17.90
2022-12-14T04:32:37.589Z,17.90
2022-12-14T04:33:37.586Z,17.40
2022-12-14T04:34:37.549Z,17.50
2022-12-14T04:35:37.523Z,17.30
2022-12-14T04:36:37.515Z,17.40
2022-12-14T04:37:37.505Z,17.50
2022-12-14T04:38:37.506Z,17.20
2022-12-14T04:39:37.533Z,17.80
2022-12-14T04:40:37.468Z,18.00
2022-12-14T04:41:37.463Z,17.90
2022-12-14T04:42:37.469Z,18.00
2022-12-14T04:43:37.476Z,18.40
2022-12-14T04:44:37.450Z,18.50
2022-12-14T04:45:37.509Z,18.60
2022-12-14T04:46:40.609Z,18.10
2022-12-14T04:47:37.414Z,17.80
2022-12-14T04:48:37.409Z,17.70
2022-12-14T04:49:37.396Z,18.20
2022-12-14T04:50:37.390Z,18.10
2022-12-14T04:51:37.349Z,17.60
2022-12-14T04:52:37.363Z,17.60
2022-12-14T04:53:37.341Z,17.50
2022-12-14T04:54:37.318Z,17.60
2022-12-14T04:55:37.321Z,17.50
2022-12-14T04:56:37.294Z,17.70
2022-12-14T04:57:37.284Z,17.40
2022-12-14T04:58:37.290Z,18.10
2022-12-14T04:59:37.274Z,18.30
2022-12-14T05:00:37.287Z,18.10
2022-12-14T05:01:37.390Z,18.90
2022-12-14T05:02:37.340Z,18.20
2022-12-14T05:03:37.237Z,18.40
2022-12-14T05:04:37.247Z,18.00
2022-12-14T05:05:37.221Z,17.40
2022-12-14T05:06:37.195Z,18.10
2022-12-14T05:07:37.196Z,17.90
2022-12-14T05:08:37.166Z,18.10
2022-12-14T05:09:37.179Z,17.70
2022-12-14T05:10:37.178Z,17.00
2022-12-14T05:11:53.024Z,17.20
2022-12-14T05:12:38.143Z,18.10
2022-12-14T05:13:37.123Z,17.50
2022-12-14T05:14:37.129Z,17.80
2022-12-14T05:15:37.105Z,18.20
2022-12-14T05:16:37.157Z,17.40
2022-12-14T05:17:37.097Z,17.90
2022-12-14T05:18:37.069Z,17.80
2022-12-14T05:19:37.097Z,18.30
2022-12-14T05:20:37.034Z,17.80
2022-12-14T05:21:37.022Z,18.80
2022-12-14T05:22:37.121Z,18.50
2022-12-14T05:23:37.005Z,17.80
2022-12-14T05:24:37.005Z,17.90
2022-12-14T05:25:36.997Z,18.10
2022-12-14T05:26:36.968Z,17.80
2022-12-14T05:27:36.958Z,18.20
2022-12-14T05:28:37.035Z,18.30
2022-12-14T05:29:36.935Z,18.30
2022-12-14T05:30:37.014Z,18.90
2022-12-14T05:31:36.914Z,17.90
2022-12-14T05:32:36.904Z,18.10
2022-12-14T05:33:36.917Z,18.20
2022-12-14T05:34:36.963Z,18.60
2022-12-14T05:35:36.897Z,17.40
2022-12-14T05:36:36.869Z,18.30
2022-12-14T05:37:36.855Z,18.20
2022-12-14T05:38:36.840Z,19.00
2022-12-14T05:39:36.833Z,18.40
2022-12-14T05:40:36.896Z,18.40
2022-12-14T05:41:36.816Z,18.20
2022-12-14T05:42:41.036Z,18.10
2022-12-14T05:43:37.805Z,18.20
2022-12-14T05:44:36.773Z,18.60
2022-12-14T05:45:36.878Z,18.40
2022-12-14T05:46:36.784Z,18.40
2022-12-14T05:47:36.804Z,18.50
2022-12-14T05:48:36.749Z,18.90
2022-12-14T05:49:36.719Z,18.60
2022-12-14T05:50:36.720Z,19.10
2022-12-14T05:51:36.720Z,18.60
2022-12-14T05:52:36.731Z,18.60
2022-12-14T05:53:36.689Z,18.70
2022-12-14T05:54:36.662Z,18.10
2022-12-14T05:55:36.690Z,17.50
2022-12-14T05:56:36.652Z,18.40
2022-12-14T05:57:36.633Z,18.00
2022-12-14T05:58:36.680Z,17.70
2022-12-14T05:59:36.680Z,17.60
2022-12-14T06:00:36.639Z,18.30
2022-12-14T06:01:36.655Z,17.40
2022-12-14T06:02:36.684Z,18.30
2022-12-14T06:03:36.569Z,17.90
2022-12-14T06:04:36.605Z,17.50
2022-12-14T06:05:36.552Z,18.60
2022-12-14T06:06:36.538Z,18.00
2022-12-14T06:07:36.538Z,18.00
2022-12-14T06:08:36.532Z,18.90
2022-12-14T06:09:36.515Z,18.60
2022-12-14T06:10:36.517Z,19.50
2022-12-14T06:11:36.492Z,18.80
2022-12-14T06:12:36.466Z,18.80
2022-12-14T06:13:36.476Z,18.50
2022-12-14T06:14:36.468Z,18.90
2022-12-14T06:15:36.506Z,18.10
2022-12-14T06:16:36.488Z,19.00
2022-12-14T06:17:36.435Z,18.80
2022-12-14T06:18:36.405Z,20.90
2022-12-14T06:19:36.397Z,19.90
2022-12-14T06:20:36.415Z,18.80
2022-12-14T06:21:36.413Z,18.70
2022-12-14T06:22:36.438Z,18.80
2022-12-14T06:23:36.369Z,18.90
2022-12-14T06:24:36.338Z,19.70
2022-12-14T06:25:36.338Z,18.90
2022-12-14T06:26:36.344Z,20.50
2022-12-14T06:27:36.304Z,20.10
2022-12-14T06:28:36.328Z,18.90
2022-12-14T06:29:36.281Z,18.00
2022-12-14T06:30:36.272Z,17.50
2022-12-14T06:31:36.284Z,18.90
2022-12-14T06:32:36.259Z,18.50
2022-12-14T06:33:36.241Z,18.90
2022-12-14T06:34:39.884Z,18.20
2022-12-14T06:35:36.242Z,18.70
2022-12-14T06:36:36.209Z,18.10
2022-12-14T06:37:36.196Z,18.90
2022-12-14T06:38:36.198Z,18.90
2022-12-14T06:39:36.371Z,19.30
2022-12-14T06:40:36.201Z,21.20
2022-12-14T06:41:36.186Z,19.20
2022-12-14T06:42:36.155Z,19.80
2022-12-14T06:43:36.130Z,18.20
2022-12-14T06:44:36.137Z,19.10
2022-12-14T06:45:36.119Z,20.10
2022-12-14T06:46:36.251Z,19.70
2022-12-14T06:47:36.125Z,19.70
2022-12-14T06:48:36.088Z,19.60
2022-12-14T06:49:36.093Z,19.20
2022-12-14T06:50:36.056Z,25.00
2022-12-14T06:51:36.059Z,23.80
2022-12-14T06:52:36.073Z,20.90
2022-12-14T06:53:36.027Z,24.30
2022-12-14T06:54:36.027Z,22.90
2022-12-14T06:55:36.023Z,18.90
2022-12-14T06:56:35.990Z,19.10
2022-12-14T06:57:36.005Z,19.80
2022-12-14T06:58:36.006Z,20.10
2022-12-14T06:59:35.973Z,19.40
2022-12-14T07:00:35.968Z,18.90
2022-12-14T07:01:36.086Z,19.60
2022-12-14T07:02:36.219Z,19.50
2022-12-14T07:03:36.122Z,18.60
2022-12-14T07:04:35.955Z,18.30
2022-12-14T07:05:35.900Z,20.10
2022-12-14T07:06:35.905Z,20.20
2022-12-14T07:07:35.871Z,18.40
2022-12-14T07:08:35.865Z,20.10
2022-12-14T07:09:35.875Z,20.20
2022-12-14T07:10:35.879Z,20.30
2022-12-14T07:11:35.856Z,20.40
2022-12-14T07:12:35.847Z,20.60
2022-12-14T07:13:35.820Z,19.70
2022-12-14T07:14:35.807Z,18.80
2022-12-14T07:15:35.850Z,19.50
2022-12-14T07:16:35.813Z,18.30
2022-12-14T07:17:35.793Z,18.30
2022-12-14T07:18:35.774Z,18.90
2022-12-14T07:19:35.740Z,18.10
2022-12-14T07:20:35.743Z,19.00
2022-12-14T07:21:35.741Z,19.50
2022-12-14T07:22:35.768Z,20.40
2022-12-14T07:23:36.112Z,21.70
2022-12-14T07:24:35.720Z,20.10
2022-12-14T07:25:35.674Z,20.80
2022-12-14T07:26:35.679Z,20.90
2022-12-14T07:27:35.703Z,20.40
2022-12-14T07:28:35.699Z,21.00
2022-12-14T07:29:35.630Z,21.20
2022-12-14T07:30:35.638Z,24.00
2022-12-14T07:31:35.627Z,22.20
2022-12-14T07:32:35.606Z,19.80
2022-12-14T07:33:35.640Z,19.20
2022-12-14T07:34:35.623Z,19.70
2022-12-14T07:35:35.564Z,20.00
2022-12-14T07:36:35.566Z,20.20
2022-12-14T07:37:35.579Z,19.90
2022-12-14T07:38:35.553Z,21.20
2022-12-14T07:39:35.549Z,19.90
2022-12-14T07:40:35.546Z,19.10
2022-12-14T07:41:35.497Z,19.60
2022-12-14T07:42:35.506Z,19.10
2022-12-14T07:43:35.510Z,19.10
2022-12-14T07:44:35.512Z,19.50
2022-12-14T07:45:35.455Z,20.00
2022-12-14T07:46:35.573Z,19.40
2022-12-14T07:47:35.436Z,19.50
2022-12-14T07:48:35.427Z,20.40
2022-12-14T07:49:35.430Z,19.90
2022-12-14T07:50:35.425Z,19.70
2022-12-14T07:51:35.532Z,19.70
2022-12-14T07:52:37.601Z,20.20
2022-12-14T07:53:35.374Z,20.30
2022-12-14T07:54:35.394Z,20.20
2022-12-14T07:55:35.366Z,20.30
2022-12-14T07:56:35.363Z,20.20
2022-12-14T07:57:35.327Z,20.30
2022-12-14T07:58:35.337Z,20.10
2022-12-14T07:59:35.365Z,20.70
2022-12-14T08:00:35.298Z,20.00
2022-12-14T08:01:35.444Z,19.70
2022-12-14T08:02:35.451Z,19.90
2022-12-14T08:03:35.263Z,19.70
2022-12-14T08:04:35.359Z,20.20
2022-12-14T08:05:35.271Z,20.30
2022-12-14T08:06:35.234Z,20.70
2022-12-14T08:07:35.231Z,20.20
2022-12-14T08:08:35.212Z,21.00
2022-12-14T08:09:35.199Z,20.00
2022-12-14T08:10:40.191Z,20.30
2022-12-14T08:11:36.211Z,20.30
2022-12-14T08:12:35.201Z,19.90
2022-12-14T08:13:35.170Z,20.90
2022-12-14T08:14:43.907Z,19.80
2022-12-14T08:15:35.146Z,20.90
2022-12-14T08:16:35.215Z,20.90
2022-12-14T08:17:35.129Z,20.70
2022-12-14T08:18:35.114Z,19.80
2022-12-14T08:19:35.120Z,20.90
2022-12-14T08:20:35.079Z,20.30
2022-12-14T08:21:35.120Z,20.30
2022-12-14T08:22:35.059Z,20.50
2022-12-14T08:23:35.047Z,20.60
2022-12-14T08:24:35.102Z,20.50
2022-12-14T08:25:35.043Z,20.00
2022-12-14T08:26:35.930Z,20.00
2022-12-14T08:27:35.004Z,20.80
2022-12-14T08:28:34.999Z,20.40
2022-12-14T08:29:35.007Z,20.40
2022-12-14T08:30:35.154Z,19.80
2022-12-14T08:31:35.021Z,19.50
2022-12-14T08:32:34.957Z,20.60
2022-12-14T08:33:34.940Z,20.60
2022-12-14T08:34:34.947Z,20.40
2022-12-14T08:35:34.919Z,20.40
2022-12-14T08:36:34.950Z,21.20
2022-12-14T08:37:34.896Z,20.20
2022-12-14T08:38:34.901Z,20.10
2022-12-14T08:39:34.903Z,20.90
2022-12-14T08:40:34.880Z,20.80
2022-12-14T08:41:34.885Z,20.10
2022-12-14T08:42:34.855Z,20.30
2022-12-14T08:43:34.830Z,22.00
2022-12-14T08:44:34.880Z,20.30
2022-12-14T08:45:34.832Z,20.60
2022-12-14T08:46:35.022Z,20.80
2022-12-14T08:47:34.797Z,19.60
2022-12-14T08:48:34.799Z,20.70
2022-12-14T08:49:34.795Z,20.30
2022-12-14T08:50:34.769Z,20.40
2022-12-14T08:51:34.741Z,20.60
2022-12-14T08:52:34.733Z,20.00
2022-12-14T08:53:34.734Z,20.60
2022-12-14T08:54:34.749Z,20.70
2022-12-14T08:55:38.687Z,20.00
2022-12-14T08:56:34.715Z,20.60
2022-12-14T08:57:34.685Z,20.60
2022-12-14T08:58:34.670Z,20.50
2022-12-14T09:00:00.288Z,21.20
2022-12-14T09:00:35.720Z,20.70
2022-12-14T09:01:35.147Z,20.00
2022-12-14T09:02:34.776Z,21.70
2022-12-14T09:03:34.698Z,21.20
2022-12-14T09:04:34.605Z,20.90
2022-12-14T09:05:34.611Z,20.90
2022-12-14T09:06:34.604Z,20.60
2022-12-14T09:07:34.571Z,21.00
2022-12-14T09:08:34.562Z,21.00
2022-12-14T09:09:34.588Z,21.50
2022-12-14T09:10:34.548Z,21.50
2022-12-14T09:11:34.548Z,22.10
2022-12-14T09:12:34.524Z,23.00
2022-12-14T09:13:34.897Z,25.40
2022-12-14T09:14:34.517Z,25.40
2022-12-14T09:15:34.617Z,23.90
2022-12-14T09:16:34.572Z,24.10
2022-12-14T09:17:35.498Z,24.30
2022-12-14T09:18:34.603Z,20.90
2022-12-14T09:19:34.494Z,21.30
2022-12-14T09:20:34.433Z,21.00
2022-12-14T09:21:34.490Z,21.20
2022-12-14T09:22:34.419Z,21.30
2022-12-14T09:23:34.694Z,23.50
2022-12-14T09:24:34.442Z,24.80
2022-12-14T09:25:34.376Z,24.10
2022-12-14T09:26:34.372Z,24.50
2022-12-14T09:27:34.384Z,22.90
2022-12-14T09:28:34.360Z,22.50
2022-12-14T09:29:34.366Z,22.00
2022-12-14T09:30:34.321Z,20.60
2022-12-14T09:31:34.413Z,22.90
2022-12-14T09:32:34.333Z,21.60
2022-12-14T09:33:34.474Z,22.10
2022-12-14T09:34:34.285Z,22.10
2022-12-14T09:35:34.320Z,22.90
2022-12-14T09:36:34.304Z,23.10
2022-12-14T09:37:34.246Z,23.20
2022-12-14T09:38:34.244Z,23.40
2022-12-14T09:39:34.399Z,23.60
2022-12-14T09:40:34.223Z,23.50
2022-12-14T09:41:34.284Z,23.30
2022-12-14T09:42:34.190Z,24.00
2022-12-14T09:43:36.873Z,23.10
2022-12-14T09:44:34.191Z,22.90
2022-12-14T09:45:34.321Z,23.60
2022-12-14T09:46:34.158Z,24.20
2022-12-14T09:47:34.167Z,24.20
2022-12-14T09:48:34.176Z,22.90
2022-12-14T09:49:34.143Z,22.10
2022-12-14T09:50:34.120Z,22.10
2022-12-14T09:51:34.174Z,22.30
2022-12-14T09:52:34.106Z,22.50
2022-12-14T09:53:34.069Z,23.30
2022-12-14T09:54:34.080Z,23.50
2022-12-14T09:55:34.052Z,23.10
2022-12-14T09:56:34.069Z,23.20
2022-12-14T09:57:34.064Z,22.80
2022-12-14T09:58:34.039Z,21.60
2022-12-14T09:59:34.012Z,22.30
2022-12-14T10:00:33.995Z,21.30
2022-12-14T10:01:34.192Z,22.30
2022-12-14T10:02:34.625Z,21.70
2022-12-14T10:03:34.721Z,21.30
2022-12-14T10:04:34.010Z,22.00
2022-12-14T10:05:33.939Z,22.70
2022-12-14T10:06:33.953Z,22.90
2022-12-14T10:07:34.498Z,23.60
2022-12-14T10:08:34.263Z,23.20
2022-12-14T10:09:33.909Z,23.30
2022-12-14T10:10:33.915Z,23.20
2022-12-14T10:11:33.874Z,22.40
2022-12-14T10:12:34.523Z,21.90
2022-12-14T10:13:34.042Z,23.30
2022-12-14T10:14:33.893Z,23.40
2022-12-14T10:15:33.852Z,23.30
2022-12-14T10:16:33.865Z,23.00
2022-12-14T10:17:33.809Z,22.60
2022-12-14T10:18:58.403Z,23.10
2022-12-14T10:19:34.830Z,22.60
2022-12-14T10:20:33.811Z,23.20
2022-12-14T10:21:33.798Z,23.10
2022-12-14T10:22:33.803Z,24.00
2022-12-14T10:23:33.765Z,24.30
2022-12-14T10:24:33.750Z,22.80
2022-12-14T10:25:33.724Z,23.70
2022-12-14T10:26:33.753Z,24.40
2022-12-14T10:27:48.020Z,23.50
2022-12-14T10:28:34.694Z,23.90
2022-12-14T10:29:33.697Z,24.10
2022-12-14T10:30:33.679Z,22.70
2022-12-14T10:31:33.836Z,22.50
2022-12-14T10:32:33.654Z,23.50
2022-12-14T10:33:33.637Z,23.10
2022-12-14T10:34:33.676Z,23.20
2022-12-14T10:35:33.615Z,23.20
2022-12-14T10:36:33.616Z,23.40
2022-12-14T10:37:33.632Z,23.20
2022-12-14T10:38:34.050Z,23.50
2022-12-14T10:39:33.570Z,22.30
2022-12-14T10:40:34.989Z,22.80
2022-12-14T10:41:33.549Z,23.30
2022-12-14T10:42:33.595Z,23.70
2022-12-14T10:43:33.563Z,25.50
2022-12-14T10:44:33.532Z,24.20
2022-12-14T10:45:41.946Z,23.80
2022-12-14T10:46:34.663Z,25.30
2022-12-14T10:47:33.495Z,25.00
2022-12-14T10:48:33.799Z,23.40
2022-12-14T10:49:33.476Z,25.40
2022-12-14T10:50:33.487Z,23.70
2022-12-14T10:51:33.440Z,24.40
2022-12-14T10:52:33.430Z,23.60
2022-12-14T10:53:38.759Z,23.40
2022-12-14T10:54:34.437Z,24.50
2022-12-14T10:55:33.416Z,24.40
2022-12-14T10:56:33.491Z,23.80
2022-12-14T10:57:33.375Z,22.90
2022-12-14T10:58:33.640Z,22.70
2022-12-14T10:59:39.599Z,23.80
2022-12-14T11:00:34.385Z,24.10
2022-12-14T11:01:33.538Z,24.40
2022-12-14T11:02:33.427Z,23.00
2022-12-14T11:03:33.411Z,22.90
2022-12-14T11:04:33.298Z,22.50
2022-12-14T11:05:36.647Z,21.70
2022-12-14T11:06:33.296Z,22.10
2022-12-14T11:07:33.289Z,22.70
2022-12-14T11:08:33.284Z,22.90
2022-12-14T11:09:33.244Z,23.70
2022-12-14T11:10:33.232Z,23.10
2022-12-14T11:11:33.304Z,24.30
2022-12-14T11:12:33.225Z,23.90
2022-12-14T11:13:33.218Z,23.90
2022-12-14T11:14:33.257Z,24.60
2022-12-14T11:15:33.194Z,24.80
2022-12-14T11:16:36.350Z,24.90
2022-12-14T11:17:33.292Z,25.20
2022-12-14T11:18:33.520Z,23.80
2022-12-14T11:19:33.175Z,23.60
2022-12-14T11:20:33.139Z,25.10
2022-12-14T11:21:33.116Z,25.70
2022-12-14T11:22:33.110Z,25.20
2022-12-14T11:23:33.093Z,25.20
2022-12-14T11:24:33.135Z,23.90
2022-12-14T11:25:33.070Z,24.00
2022-12-14T11:26:33.071Z,25.20
2022-12-14T11:27:33.049Z,25.20
2022-12-14T11:28:37.607Z,26.70
2022-12-14T11:29:34.055Z,24.40
2022-12-14T11:30:33.110Z,33.30
2022-12-14T11:31:33.044Z,31.70
2022-12-14T11:32:33.012Z,29.50
2022-12-14T11:33:32.985Z,27.90
2022-12-14T11:34:32.984Z,27.10
2022-12-14T11:35:33.005Z,29.70
2022-12-14T11:36:32.967Z,28.00
2022-12-14T11:37:32.971Z,34.30
2022-12-14T11:38:33.193Z,33.10
2022-12-14T11:39:32.949Z,27.80
2022-12-14T11:40:32.913Z,25.70
2022-12-14T11:41:32.911Z,24.20
2022-12-14T11:42:32.906Z,24.20
2022-12-14T11:43:32.877Z,31.70
2022-12-14T11:44:32.933Z,25.90
2022-12-14T11:45:32.870Z,26.10
2022-12-14T11:46:32.944Z,25.30
2022-12-14T11:47:32.864Z,25.70
2022-12-14T11:48:33.267Z,25.90
2022-12-14T11:49:32.812Z,26.90
2022-12-14T11:50:32.854Z,26.20
2022-12-14T11:51:32.797Z,24.40
2022-12-14T11:52:32.812Z,24.50
2022-12-14T11:53:32.790Z,24.70
2022-12-14T11:54:32.756Z,24.50
2022-12-14T11:55:32.751Z,23.30
2022-12-14T11:56:32.773Z,24.60
2022-12-14T11:57:32.725Z,23.90
2022-12-14T11:58:33.306Z,24.90
2022-12-14T11:59:32.727Z,24.50
2022-12-14T12:00:32.687Z,24.60
2022-12-14T12:01:32.741Z,24.00
2022-12-14T12:02:32.788Z,24.50
2022-12-14T12:03:32.719Z,24.60
2022-12-14T12:04:32.657Z,24.00
2022-12-14T12:05:32.670Z,23.40
2022-12-14T12:06:32.659Z,22.80
2022-12-14T12:07:32.616Z,23.20
2022-12-14T12:08:33.487Z,24.00
2022-12-14T12:09:32.591Z,25.10
2022-12-14T12:10:32.599Z,25.50
2022-12-14T12:11:32.591Z,24.70
2022-12-14T12:12:32.558Z,23.90
2022-12-14T12:13:32.550Z,24.80
2022-12-14T12:14:32.563Z,23.70
2022-12-14T12:15:32.653Z,24.30
2022-12-14T12:16:32.620Z,23.50
2022-12-14T12:17:32.503Z,24.70
2022-12-14T12:18:33.229Z,24.20
2022-12-14T12:19:32.485Z,24.50
2022-12-14T12:20:32.490Z,24.60
2022-12-14T12:21:33.401Z,24.50
2022-12-14T12:22:32.448Z,21.30
2022-12-14T12:23:32.799Z,21.40
2022-12-14T12:24:32.425Z,22.60
2022-12-14T12:25:37.235Z,22.50
2022-12-14T12:26:33.441Z,22.10
2022-12-14T12:27:32.404Z,23.30
2022-12-14T12:28:32.717Z,22.30
2022-12-14T12:29:32.372Z,22.90
2022-12-14T12:30:32.360Z,22.20
2022-12-14T12:31:32.411Z,23.20
2022-12-14T12:32:32.362Z,24.10
2022-12-14T12:33:32.343Z,22.50
2022-12-14T12:34:32.342Z,22.10
2022-12-14T12:35:32.338Z,21.30
2022-12-14T12:36:32.299Z,22.40
2022-12-14T12:37:32.307Z,22.30
2022-12-14T12:38:32.731Z,21.50
2022-12-14T12:39:32.283Z,22.30
2022-12-14T12:40:32.301Z,22.80
2022-12-14T12:41:32.239Z,21.20
2022-12-14T12:42:32.258Z,22.90
2022-12-14T12:43:32.225Z,23.30
2022-12-14T12:44:32.267Z,23.10
2022-12-14T12:45:32.222Z,21.90
2022-12-14T12:46:32.204Z,23.10
2022-12-14T12:47:44.439Z,22.70
2022-12-14T12:48:33.548Z,22.10
2022-12-14T12:49:32.172Z,21.10
2022-12-14T12:50:32.169Z,22.30
2022-12-14T12:51:32.145Z,21.00
2022-12-14T12:52:32.151Z,20.60